createdAt,value
2019-01-25T00:01:27.652Z,12.50
2019-01-25T00:05:31.871Z,11.73
2019-01-25T00:09:36.165Z,13.50
2019-01-25T00:13:40.461Z,14.77
2019-01-25T00:17:44.723Z,14.70
2019-01-25T00:21:48.955Z,14.10
2019-01-25T00:25:53.236Z,13.20
2019-01-25T00:29:57.501Z,14.00
2019-01-25T00:34:01.745Z,14.53
2019-01-25T00:38:06.000Z,14.13
2019-01-25T00:42:10.262Z,13.97
2019-01-25T00:46:14.537Z,15.33
2019-01-25T00:50:19.787Z,13.67
2019-01-25T00:54:24.049Z,14.67
2019-01-25T00:58:29.751Z,14.77
2019-01-25T01:02:34.084Z,14.20
2019-01-25T01:06:38.434Z,14.53
2019-01-25T01:10:42.791Z,13.37
2019-01-25T01:14:47.146Z,14.00
2019-01-25T01:18:51.419Z,14.83
2019-01-25T01:22:55.684Z,14.00
2019-01-25T01:27:00.055Z,14.83
2019-01-25T01:31:04.480Z,15.27
2019-01-25T01:35:08.823Z,15.53
2019-01-25T01:39:13.120Z,14.90
2019-01-25T01:43:17.393Z,15.10
2019-01-25T01:47:21.699Z,15.37
2019-01-25T01:51:25.974Z,16.17
2019-01-25T01:55:30.230Z,15.37
2019-01-25T01:59:34.580Z,16.03
2019-01-25T02:03:38.863Z,15.67
2019-01-25T02:07:43.109Z,14.23
2019-01-25T02:11:47.437Z,15.93
2019-01-25T02:15:51.710Z,15.27
2019-01-25T02:19:56.022Z,15.60
2019-01-25T02:24:00.687Z,15.87
2019-01-25T02:28:04.930Z,16.07
2019-01-25T02:32:09.230Z,16.10
2019-01-25T02:36:13.566Z,15.50
2019-01-25T02:40:20.053Z,15.17
2019-01-25T02:44:24.315Z,17.10
2019-01-25T02:48:28.890Z,15.77
2019-01-25T02:52:33.153Z,16.87
2019-01-25T02:56:37.499Z,16.60
2019-01-25T03:00:41.752Z,17.70
2019-01-25T03:04:46.022Z,16.77
2019-01-25T03:08:50.290Z,17.23
2019-01-25T03:12:54.652Z,17.43
2019-01-25T03:16:58.985Z,17.00
2019-01-25T03:21:04.928Z,17.97
2019-01-25T03:25:11.399Z,17.03
2019-01-25T03:29:15.667Z,18.50
2019-01-25T03:33:20.061Z,17.40
2019-01-25T03:37:24.935Z,18.53
2019-01-25T03:41:29.182Z,18.40
2019-01-25T03:45:33.497Z,17.80
2019-01-25T03:49:37.775Z,18.00
2019-01-25T03:53:42.050Z,16.23
2019-01-25T03:57:46.334Z,18.17
2019-01-25T04:01:50.660Z,17.17
2019-01-25T04:05:54.974Z,17.40
2019-01-25T04:09:59.259Z,17.10
2019-01-25T04:14:03.535Z,16.23
2019-01-25T04:18:07.837Z,18.63
2019-01-25T04:22:12.090Z,18.13
2019-01-25T04:26:16.500Z,18.33
2019-01-25T04:30:22.984Z,17.67
2019-01-25T04:34:27.277Z,18.60
2019-01-25T04:38:31.585Z,17.83
2019-01-25T04:42:35.842Z,19.00
2019-01-25T04:46:40.133Z,17.33
2019-01-25T04:50:44.345Z,18.53
2019-01-25T04:54:48.695Z,17.20
2019-01-25T04:58:53.855Z,16.57
2019-01-25T05:02:59.373Z,17.73
2019-01-25T05:07:03.616Z,17.40
2019-01-25T05:11:19.912Z,18.47
2019-01-25T05:15:22.911Z,18.13
2019-01-25T05:19:27.203Z,19.03
2019-01-25T05:23:31.483Z,17.77
2019-01-25T05:27:35.689Z,18.97
2019-01-25T05:31:39.975Z,18.03
2019-01-25T05:35:44.281Z,15.77
2019-01-25T05:39:48.581Z,16.93
2019-01-25T05:43:52.877Z,17.03
2019-01-25T05:47:57.183Z,16.83
2019-01-25T05:52:01.561Z,16.40
2019-01-25T05:56:07.016Z,15.50
2019-01-25T06:00:12.614Z,17.73
2019-01-25T06:04:17.172Z,16.70
2019-01-25T06:08:31.400Z,16.03
2019-01-25T06:12:35.666Z,15.20
2019-01-25T06:16:41.726Z,17.23
2019-01-25T06:20:49.578Z,14.93
2019-01-25T06:24:53.931Z,15.43
2019-01-25T06:28:58.170Z,14.80
2019-01-25T06:33:02.421Z,16.67
2019-01-25T06:37:06.663Z,14.57
2019-01-25T06:41:10.933Z,14.67
2019-01-25T06:45:15.411Z,14.80
2019-01-25T06:49:20.032Z,14.73
2019-01-25T06:53:24.259Z,15.07
2019-01-25T06:57:50.348Z,15.33
2019-01-25T07:02:07.687Z,14.97
2019-01-25T07:06:11.943Z,13.87
2019-01-25T07:10:17.980Z,14.23
2019-01-25T07:14:22.203Z,13.17
2019-01-25T07:18:26.447Z,14.97
2019-01-25T07:22:30.711Z,13.70
2019-01-25T07:26:35.007Z,13.07
2019-01-25T07:30:39.200Z,12.70
2019-01-25T07:34:43.534Z,13.47
2019-01-25T07:38:47.765Z,14.07
2019-01-25T07:42:52.038Z,13.00
2019-01-25T07:46:56.329Z,14.67
2019-01-25T07:51:00.592Z,13.17
2019-01-25T07:55:05.731Z,12.13
2019-01-25T07:59:10.008Z,13.77
2019-01-25T08:03:33.334Z,11.90
2019-01-25T08:07:37.668Z,12.47
2019-01-25T08:11:41.992Z,13.93
2019-01-25T08:15:46.292Z,14.30
2019-01-25T08:19:50.521Z,14.23
2019-01-25T08:23:54.839Z,14.13
2019-01-25T08:27:59.125Z,14.73
2019-01-25T08:32:03.354Z,15.43
2019-01-25T08:36:07.582Z,13.37
2019-01-25T08:40:13.046Z,14.17
2019-01-25T08:44:17.263Z,15.23
2019-01-25T08:48:21.538Z,15.17
2019-01-25T08:52:25.764Z,14.30
2019-01-25T08:56:30.217Z,14.37
2019-01-25T09:00:34.474Z,15.80
2019-01-25T09:04:38.729Z,15.93
2019-01-25T09:08:43.151Z,15.57
2019-01-25T09:12:47.857Z,15.93
2019-01-25T09:17:11.172Z,16.90
2019-01-25T09:21:15.323Z,16.63
2019-01-25T09:25:19.560Z,15.23
2019-01-25T09:29:23.838Z,15.93
2019-01-25T09:33:28.160Z,16.00
2019-01-25T09:37:32.376Z,15.73
2019-01-25T09:41:36.668Z,16.20
2019-01-25T09:45:40.996Z,15.63
2019-01-25T09:49:45.261Z,16.87
2019-01-25T09:53:49.558Z,16.57
2019-01-25T09:57:54.776Z,18.30
2019-01-25T10:01:59.196Z,16.10
2019-01-25T10:06:03.376Z,17.47
2019-01-25T10:10:08.258Z,17.70
2019-01-25T10:14:12.493Z,17.17
2019-01-25T10:18:16.749Z,17.37
2019-01-25T10:22:21.050Z,18.27
2019-01-25T10:26:25.281Z,17.63
2019-01-25T10:30:29.634Z,17.47
2019-01-25T10:34:33.830Z,17.20
2019-01-25T10:38:38.075Z,17.10
2019-01-25T10:42:45.523Z,17.00
2019-01-25T10:46:48.302Z,19.00
2019-01-25T10:50:52.553Z,18.47
2019-01-25T10:54:56.821Z,17.53
2019-01-25T10:59:01.060Z,18.57
2019-01-25T11:03:05.845Z,17.33
2019-01-25T11:07:10.145Z,16.60
2019-01-25T11:11:14.446Z,16.80
2019-01-25T11:15:20.836Z,17.90
2019-01-25T11:19:25.115Z,16.83
2019-01-25T11:23:29.400Z,18.03
2019-01-25T11:27:33.644Z,16.47
2019-01-25T11:31:37.873Z,16.23
2019-01-25T11:35:42.118Z,17.00
2019-01-25T11:39:49.269Z,17.63
2019-01-25T11:43:52.375Z,17.13
2019-01-25T11:47:56.847Z,16.23
2019-01-25T11:52:24.984Z,17.37
2019-01-25T11:56:26.150Z,14.07
2019-01-25T12:00:31.211Z,17.37
2019-01-25T12:04:35.411Z,16.73
2019-01-25T12:08:39.714Z,15.30
2019-01-25T12:12:43.913Z,17.57
2019-01-25T12:16:48.168Z,15.37
2019-01-25T12:20:52.362Z,15.87
2019-01-25T12:24:56.608Z,17.00
2019-01-25T12:29:00.950Z,18.07
2019-01-25T12:33:06.074Z,17.67
2019-01-25T12:37:10.280Z,17.17
2019-01-25T12:41:14.486Z,17.93
2019-01-25T12:45:20.940Z,18.37
2019-01-25T12:49:25.171Z,17.70
2019-01-25T12:53:29.632Z,17.63
2019-01-25T12:57:33.864Z,18.57
2019-01-25T13:01:40.521Z,20.00
2019-01-25T13:05:44.761Z,17.43
2019-01-25T13:09:49.039Z,19.60
2019-01-25T13:13:53.301Z,18.00
2019-01-25T13:17:57.536Z,17.70
2019-01-25T13:22:01.819Z,17.87
2019-01-25T13:26:06.006Z,18.03
2019-01-25T13:30:13.596Z,17.47
2019-01-25T13:34:17.918Z,16.50
2019-01-25T13:38:22.154Z,16.90
2019-01-25T13:42:26.435Z,15.80
2019-01-25T13:46:30.649Z,16.20
2019-01-25T13:50:34.901Z,14.90
2019-01-25T13:54:39.129Z,15.67
2019-01-25T13:58:43.381Z,15.57
2019-01-25T14:02:47.763Z,15.60
2019-01-25T14:06:52.174Z,15.47
2019-01-25T14:10:56.726Z,14.57
2019-01-25T14:19:17.055Z,16.07
2019-01-25T14:23:21.496Z,17.47
2019-01-25T14:27:25.906Z,15.27
2019-01-25T14:31:30.153Z,16.80
2019-01-25T14:35:34.458Z,15.57
2019-01-25T14:39:38.729Z,15.93
2019-01-25T14:43:43.036Z,16.43
2019-01-25T14:47:47.304Z,16.23
2019-01-25T14:51:51.621Z,14.63
2019-01-25T14:55:55.892Z,16.10
2019-01-25T15:00:00.375Z,15.17
2019-01-25T15:04:04.668Z,15.57
2019-01-25T15:08:08.907Z,16.13
2019-01-25T15:12:13.149Z,15.30
2019-01-25T15:16:17.704Z,16.00
2019-01-25T15:20:27.172Z,16.30
2019-01-25T15:24:31.493Z,16.87
2019-01-25T15:28:35.719Z,16.10
2019-01-25T15:32:40.057Z,15.63
2019-01-25T15:36:44.306Z,16.83
2019-01-25T15:40:48.565Z,15.63
2019-01-25T15:44:52.834Z,16.03
2019-01-25T15:48:57.065Z,16.50
2019-01-25T15:53:01.285Z,15.97
2019-01-25T15:57:05.582Z,16.20
2019-01-25T16:01:09.842Z,15.70
2019-01-25T16:05:16.052Z,15.33
2019-01-25T16:09:23.699Z,16.70
2019-01-25T16:13:26.407Z,14.47
2019-01-25T16:17:30.637Z,15.57
2019-01-25T16:21:34.895Z,15.20
2019-01-25T16:25:40.035Z,15.43
2019-01-25T16:29:44.365Z,15.40
2019-01-25T16:33:48.671Z,14.37
2019-01-25T16:37:52.905Z,15.93
2019-01-25T16:41:57.135Z,14.90
2019-01-25T16:46:01.407Z,15.43
2019-01-25T16:50:08.124Z,15.80
2019-01-25T16:54:12.422Z,14.43
2019-01-25T16:58:16.688Z,14.87
2019-01-25T17:02:20.985Z,14.27
2019-01-25T17:06:25.200Z,13.97
2019-01-25T17:10:29.938Z,14.67
2019-01-25T17:14:34.146Z,14.63
2019-01-25T17:18:38.859Z,14.73
2019-01-25T17:22:43.096Z,14.10
2019-01-25T17:26:47.535Z,13.80
2019-01-25T17:30:51.889Z,13.03
2019-01-25T17:34:56.295Z,14.30
2019-01-25T17:39:00.598Z,14.77
2019-01-25T17:43:05.243Z,13.33
2019-01-25T17:47:09.569Z,12.70
2019-01-25T17:51:13.854Z,12.10
2019-01-25T17:55:18.226Z,12.63
2019-01-25T17:59:22.504Z,11.80
2019-01-25T18:03:26.835Z,12.37
2019-01-25T18:07:31.163Z,11.03
2019-01-25T18:11:35.599Z,11.33
2019-01-25T18:15:39.881Z,11.30
2019-01-25T18:19:44.360Z,11.80
2019-01-25T18:23:48.650Z,10.87
2019-01-25T18:27:56.681Z,11.07
2019-01-25T18:32:01.034Z,11.63
2019-01-25T18:36:05.625Z,13.30
2019-01-25T18:40:10.836Z,12.33
2019-01-25T18:44:15.111Z,11.27
2019-01-25T18:48:19.452Z,11.47
2019-01-25T18:52:24.440Z,12.13
2019-01-25T18:56:28.706Z,11.27
2019-01-25T19:00:33.007Z,11.27
2019-01-25T19:04:37.221Z,13.60
2019-01-25T19:08:41.444Z,12.20
2019-01-25T19:12:45.752Z,12.20
2019-01-25T19:16:50.014Z,11.40
2019-01-25T19:20:54.588Z,12.40
2019-01-25T19:24:58.797Z,12.40
2019-01-25T19:29:03.051Z,12.87
2019-01-25T19:33:07.326Z,12.70
2019-01-25T19:37:11.684Z,12.50
2019-01-25T19:41:15.902Z,12.97
2019-01-25T19:45:20.294Z,12.27
2019-01-25T19:49:24.563Z,12.70
2019-01-25T19:53:29.147Z,12.40
2019-01-25T19:57:33.431Z,12.97
2019-01-25T20:01:37.826Z,12.10
2019-01-25T20:05:42.343Z,12.50
2019-01-25T20:09:46.848Z,12.30
2019-01-25T20:13:51.472Z,12.07
2019-01-25T20:17:55.704Z,13.50
2019-01-25T20:22:00.235Z,13.17
2019-01-25T20:26:04.757Z,13.00
2019-01-25T20:30:12.668Z,14.03
2019-01-25T20:34:16.967Z,12.90
2019-01-25T20:38:21.216Z,13.30
2019-01-25T20:42:25.419Z,13.40
2019-01-25T20:46:29.917Z,13.77
2019-01-25T20:50:35.260Z,13.73
2019-01-25T20:54:39.504Z,14.23
2019-01-25T20:58:44.064Z,15.63
2019-01-25T21:02:48.341Z,16.67
2019-01-25T21:06:52.805Z,15.00
2019-01-25T21:10:57.044Z,16.73
2019-01-25T21:15:01.303Z,15.93
2019-01-25T21:19:05.702Z,17.13
2019-01-25T21:23:10.073Z,16.50
2019-01-25T21:27:15.468Z,16.03
2019-01-25T21:31:20.090Z,16.30
2019-01-25T21:35:24.308Z,17.23
2019-01-25T21:39:28.678Z,16.73
2019-01-25T21:43:32.891Z,15.80
2019-01-25T21:47:37.117Z,16.63
2019-01-25T21:51:41.349Z,16.67
2019-01-25T21:55:45.773Z,15.87
2019-01-25T21:59:50.143Z,16.10
2019-01-25T22:03:54.413Z,15.57
2019-01-25T22:07:58.780Z,15.80
2019-01-25T22:12:03.105Z,16.03
2019-01-25T22:16:07.381Z,15.73
2019-01-25T22:20:15.106Z,15.60
2019-01-25T22:24:19.368Z,15.17
2019-01-25T22:28:23.625Z,15.17
2019-01-25T22:32:27.979Z,14.83
2019-01-25T22:36:32.196Z,14.33
2019-01-25T22:40:36.453Z,14.83
2019-01-25T22:44:40.704Z,13.60
2019-01-25T22:48:45.129Z,14.57
2019-01-25T22:52:49.517Z,12.40
2019-01-25T22:56:53.783Z,15.20
2019-01-25T23:01:08.931Z,12.67
2019-01-25T23:05:43.710Z,12.17
2019-01-25T23:09:50.546Z,11.60
2019-01-25T23:13:54.824Z,11.93
2019-01-25T23:17:59.053Z,11.97
2019-01-25T23:22:03.319Z,10.60
2019-01-25T23:26:07.668Z,11.83
2019-01-25T23:30:14.493Z,11.40
2019-01-25T23:34:18.747Z,9.83
2019-01-25T23:38:22.956Z,12.80
2019-01-25T23:42:27.226Z,11.37
2019-01-25T23:46:31.504Z,10.33
2019-01-25T23:54:46.924Z,10.40
2019-01-25T23:58:51.377Z,10.03
